Accueil
METAR-TAF:

METAR-TAF

Aéroports :

Aéroport international de Coni

Coni, Italie

latitude: 44-32-47N, longitude: 007-37-20E, altitude: 386 m

Observation

Le bulletin a été fait il y a 39 minutes, à 07:20 UTC
Vent 1 kt de direction variable
Température 10°C
Humidité 53%
Pression 1007 hPa
Visibilité 10 km ou plus

METAR: LIMZ 170720Z AUTO VRB01KT 9999 NCD 10/01 Q1007

Heure: 09:59 (07:59 UTC)

Prévision

Le bulletin a été fait il y a 2 heures et 59 minutes, à 05:00 UTC
Prévision valable du 17 à 06 UTC au 18 à 06 UTC
Vent 5 kt de direction variable
Visibilité 10 km ou plus
pas de nuages en-dessous de 1500 mètres et pas de cumulonimbus.
Evoluant progressivement
du 17 à 10 UTC au 17 à 12 UTC
Vent 13 kt de nord/nord-ouest
Evoluant progressivement
du 17 à 18 UTC au 17 à 20 UTC
Vent 5 kt de direction variable

TAF: LIMZ 170500Z 1706/1806 VRB05KT CAVOK BECMG 1710/1712 33013KT BECMG 1718/1720 VRB05KT

Observations et prévisions météorologiques de plus de 4000 aéroports (messages METAR et TAF).

Les stations disponibles sont représentées par des disques jaunes et rouges sur la carte.

Passer la souris dessus pour voir le nom de la station.

Cliquer dessus pour voir les observations et prévisions météorologiques.

Pour changer de carte: cliquez sur les boutons verts avec une croix noire pour zoomer, sur le bouton vert avec un tiret pour effectuer un zoom arrière, ou sur les flèches vertes pour les cartes adjacentes.


METAR-TAF: